Time;durP1;ratioP1;P1;durP2;ratioP2;P2;SDS_P1;SDS_P2;PMS_P1;PMS_P2;Temp;Humidity;BMP_temperature;BMP_pressure;BME280_temperature;BME280_humidity;BME280_pressure;Samples;Min_cycle;Max_cycle;Signal;HPM_P1;HPM_P2
2021/05/12 00:02:01;;;;;;;0.70;0.70;;;10.30;99.90;;;;;;5016932;28;20456;-79
2021/05/12 00:04:27;;;;;;;1.05;0.85;;;10.30;99.90;;;;;;5017394;28;20440;-78
2021/05/12 00:06:52;;;;;;;2.75;0.85;;;10.20;99.90;;;;;;5016714;28;20033;-79
2021/05/12 00:09:18;;;;;;;1.13;0.80;;;10.20;99.90;;;;;;5016824;28;20030;-78
2021/05/12 00:11:44;;;;;;;0.93;0.70;;;10.10;99.90;;;;;;5016743;28;20067;-78
2021/05/12 00:14:10;;;;;;;1.33;0.80;;;10.10;99.90;;;;;;5016740;28;20085;-78
2021/05/12 00:16:36;;;;;;;1.30;1.20;;;10.10;99.90;;;;;;5016901;28;20026;-78
2021/05/12 00:19:01;;;;;;;0.95;0.88;;;10.20;99.90;;;;;;5004617;28;20022;-79
2021/05/12 00:24:01;;;;;;;0.93;0.80;;;10.10;99.90;;;;;;5016664;28;20030;-79
2021/05/12 00:26:37;;;;;;;1.20;0.90;;;10.10;99.90;;;;;;5016919;28;20502;-78
2021/05/12 00:29:09;;;;;;;0.90;0.80;;;10.20;99.90;;;;;;5015179;28;20112;-77
2021/05/12 00:31:35;;;;;;;2.10;1.00;;;10.20;99.90;;;;;;5001101;28;20036;-76
2021/05/12 00:34:01;;;;;;;9.53;2.00;;;10.20;99.90;;;;;;5014362;28;20112;-77
2021/05/12 00:36:27;;;;;;;2.13;1.00;;;10.10;99.90;;;;;;5013692;28;20021;-76
2021/05/12 00:38:56;;;;;;;3.00;0.90;;;10.10;99.90;;;;;;5006077;28;20458;-77
2021/05/12 00:41:21;;;;;;;1.10;0.80;;;10.00;99.90;;;;;;5013235;28;20053;-77
2021/05/12 00:43:47;;;;;;;1.07;0.90;;;10.00;99.90;;;;;;5014032;28;20026;-77
2021/05/12 00:46:13;;;;;;;1.67;1.13;;;10.00;99.90;;;;;;5013789;28;20053;-77
2021/05/12 00:48:39;;;;;;;1.70;0.97;;;10.00;99.90;;;;;;5013952;28;20367;-77
2021/05/12 00:51:06;;;;;;;1.00;0.90;;;10.00;99.90;;;;;;5016132;28;20037;-76
2021/05/12 00:53:32;;;;;;;1.07;0.90;;;10.00;99.90;;;;;;5013565;28;20026;-77
2021/05/12 00:55:57;;;;;;;1.43;0.90;;;9.90;99.90;;;;;;5001201;28;20494;-77
2021/05/12 00:58:23;;;;;;;1.63;0.90;;;9.90;99.90;;;;;;5013182;28;20034;-77
2021/05/12 01:00:49;;;;;;;0.85;0.85;;;9.90;99.90;;;;;;5006174;28;20049;-77
2021/05/12 01:03:14;;;;;;;1.10;1.00;;;9.80;99.90;;;;;;5013276;28;20498;-77
2021/05/12 01:05:49;;;;;;;1.33;0.80;;;9.80;99.90;;;;;;4995206;28;20029;-77
2021/05/12 01:08:18;;;;;;;1.33;0.88;;;9.80;99.90;;;;;;5010643;28;20041;-77
2021/05/12 01:10:44;;;;;;;1.87;0.90;;;9.70;99.90;;;;;;5013384;28;20066;-77
2021/05/12 01:13:12;;;;;;;0.97;0.80;;;9.70;99.90;;;;;;5013499;28;20029;-77
2021/05/12 01:15:38;;;;;;;1.00;0.80;;;9.80;99.90;;;;;;4995724;28;20026;-76
2021/05/12 01:18:13;;;;;;;2.10;0.97;;;9.80;99.90;;;;;;5013634;28;20041;-76
2021/05/12 01:20:59;;;;;;;1.13;0.80;;;9.90;99.90;;;;;;5009547;28;20447;-76
2021/05/12 01:23:27;;;;;;;0.80;0.80;;;9.80;99.90;;;;;;5002093;28;20030;-76
2021/05/12 01:25:54;;;;;;;0.80;0.80;;;9.80;99.90;;;;;;5012654;28;20050;-76
2021/05/12 01:28:22;;;;;;;1.07;0.97;;;9.80;99.90;;;;;;4976103;28;20386;-77
2021/05/12 01:31:02;;;;;;;1.40;0.80;;;9.70;99.90;;;;;;5006395;28;20479;-76
2021/05/12 01:33:28;;;;;;;0.80;0.80;;;9.70;99.90;;;;;;4980693;28;20101;-76
2021/05/12 01:35:54;;;;;;;0.80;0.80;;;9.70;99.90;;;;;;4993293;28;20030;-76
2021/05/12 01:38:20;;;;;;;0.70;0.70;;;9.60;99.90;;;;;;5003164;28;20483;-77
2021/05/12 01:40:46;;;;;;;1.37;0.80;;;9.70;99.90;;;;;;4992881;28;20109;-76
2021/05/12 01:43:13;;;;;;;0.90;0.80;;;9.70;99.90;;;;;;4992738;28;20071;-76
2021/05/12 01:45:39;;;;;;;1.13;1.00;;;9.60;99.90;;;;;;4992990;28;20086;-76
2021/05/12 01:48:10;;;;;;;1.13;0.90;;;9.60;99.90;;;;;;4992729;28;20066;-76
2021/05/12 01:50:37;;;;;;;0.90;0.80;;;9.60;99.90;;;;;;4993013;28;20416;-76
2021/05/12 01:53:07;;;;;;;1.07;0.90;;;9.60;99.90;;;;;;4992155;28;20035;-76
2021/05/12 01:55:33;;;;;;;1.70;0.90;;;9.60;99.90;;;;;;4992768;28;20014;-76
2021/05/12 01:57:58;;;;;;;4.07;0.90;;;9.50;99.90;;;;;;4993418;28;20345;-76
2021/05/12 02:00:25;;;;;;;0.90;0.80;;;9.50;99.90;;;;;;4990999;28;20456;-76
2021/05/12 02:02:52;;;;;;;0.70;0.70;;;9.60;99.90;;;;;;4992509;28;20097;-76
2021/05/12 02:05:18;;;;;;;0.93;0.80;;;9.60;99.90;;;;;;4978773;28;20445;-76
2021/05/12 02:07:47;;;;;;;1.57;1.00;;;9.50;99.90;;;;;;4992640;28;20082;-76
2021/05/12 02:10:12;;;;;;;1.10;0.90;;;9.50;99.90;;;;;;4992457;28;20034;-76
2021/05/12 02:12:38;;;;;;;1.07;0.90;;;9.50;99.90;;;;;;4992324;28;20022;-76
2021/05/12 02:15:04;;;;;;;0.80;0.80;;;9.60;99.90;;;;;;4992870;28;20057;-77
2021/05/12 02:17:30;;;;;;;2.17;0.70;;;9.50;99.90;;;;;;4992247;28;20089;-76
2021/05/12 02:19:55;;;;;;;0.80;0.80;;;9.60;99.90;;;;;;4992233;28;20019;-76
2021/05/12 02:22:21;;;;;;;2.67;0.93;;;9.60;99.90;;;;;;4990481;28;20097;-76
2021/05/12 02:24:47;;;;;;;1.10;0.73;;;9.60;99.90;;;;;;4989906;28;20852;-76
2021/05/12 02:27:12;;;;;;;1.40;0.93;;;9.70;99.90;;;;;;5012078;28;20043;-76
2021/05/12 02:29:38;;;;;;;1.00;0.90;;;9.70;99.90;;;;;;4994228;28;20492;-76
2021/05/12 02:32:04;;;;;;;0.67;0.67;;;9.70;99.90;;;;;;4999971;28;20078;-76
2021/05/12 02:34:29;;;;;;;1.17;0.70;;;9.60;99.90;;;;;;5009910;28;20029;-76
2021/05/12 02:36:55;;;;;;;1.00;0.73;;;9.70;99.90;;;;;;5011944;28;20114;-76
2021/05/12 02:39:20;;;;;;;1.40;1.10;;;9.70;99.90;;;;;;5008723;28;20042;-76
2021/05/12 02:41:46;;;;;;;1.83;1.00;;;9.70;99.90;;;;;;5011498;28;20092;-76
2021/05/12 02:44:11;;;;;;;2.30;1.07;;;9.60;99.90;;;;;;4993958;28;20407;-76
2021/05/12 02:46:37;;;;;;;1.00;0.90;;;9.60;99.90;;;;;;5012047;28;20025;-77
2021/05/12 02:49:03;;;;;;;1.10;0.93;;;9.60;99.90;;;;;;5011430;28;20372;-76
2021/05/12 02:51:29;;;;;;;1.50;0.90;;;9.60;99.90;;;;;;4993937;28;20017;-76
2021/05/12 02:53:55;;;;;;;8.30;1.60;;;9.60;99.90;;;;;;5011342;28;20370;-76
2021/05/12 02:56:21;;;;;;;0.83;0.83;;;9.60;99.90;;;;;;5010939;28;20018;-76
2021/05/12 02:58:46;;;;;;;3.40;1.07;;;9.50;99.90;;;;;;4993455;28;20072;-76
2021/05/12 03:01:12;;;;;;;2.10;0.80;;;9.60;99.90;;;;;;5011183;28;20097;-76
2021/05/12 03:03:37;;;;;;;0.80;0.80;;;9.60;99.90;;;;;;5010175;28;20479;-76
2021/05/12 03:06:03;;;;;;;1.20;0.90;;;9.50;99.90;;;;;;5010986;28;20029;-76
2021/05/12 03:08:29;;;;;;;1.13;1.03;;;9.70;99.90;;;;;;5011059;28;20033;-79
2021/05/12 03:10:55;;;;;;;0.80;0.80;;;9.70;99.90;;;;;;5012485;28;20021;-83
2021/05/12 03:13:21;;;;;;;1.13;0.77;;;9.70;99.90;;;;;;5011703;28;20030;-82
2021/05/12 03:15:46;;;;;;;1.73;1.20;;;9.60;99.90;;;;;;5010847;28;20030;-82
2021/05/12 03:18:12;;;;;;;0.80;0.80;;;9.60;99.90;;;;;;5011342;28;20021;-83
2021/05/12 03:20:37;;;;;;;1.00;0.80;;;9.50;99.90;;;;;;4993924;28;20026;-83
2021/05/12 03:23:04;;;;;;;0.70;0.70;;;9.60;99.90;;;;;;4993449;28;20029;-82
2021/05/12 03:25:30;;;;;;;0.80;0.70;;;9.50;99.90;;;;;;5011560;28;20050;-78
2021/05/12 03:27:56;;;;;;;0.60;0.60;;;9.50;99.90;;;;;;5011570;28;20021;-78
2021/05/12 03:30:32;;;;;;;1.90;0.77;;;9.50;99.90;;;;;;5011689;28;20041;-78
2021/05/12 03:33:00;;;;;;;0.80;0.80;;;9.50;99.90;;;;;;5011621;28;20101;-78
2021/05/12 03:35:26;;;;;;;1.33;0.80;;;9.50;99.90;;;;;;5011378;28;20058;-78
2021/05/12 03:37:56;;;;;;;1.43;1.00;;;9.40;99.90;;;;;;5011857;28;20029;-78
2021/05/12 03:40:23;;;;;;;1.07;0.97;;;9.40;99.90;;;;;;5011331;28;20077;-78
2021/05/12 03:42:49;;;;;;;1.07;0.80;;;9.50;99.90;;;;;;5011336;28;20052;-78
2021/05/12 03:45:15;;;;;;;1.70;0.80;;;9.50;99.90;;;;;;5011589;28;20053;-78
2021/05/12 03:47:40;;;;;;;1.63;0.70;;;9.40;99.90;;;;;;5011062;28;20026;-78
2021/05/12 03:50:07;;;;;;;0.60;0.60;;;9.40;99.90;;;;;;5011698;28;20081;-78
2021/05/12 03:52:33;;;;;;;1.90;1.20;;;9.40;99.90;;;;;;5011793;28;20471;-78
2021/05/12 03:54:59;;;;;;;1.10;0.73;;;9.50;99.90;;;;;;5012186;28;20026;-78
2021/05/12 03:57:25;;;;;;;0.70;0.70;;;9.40;99.90;;;;;;5012243;28;20436;-78
2021/05/12 03:59:50;;;;;;;0.83;0.70;;;9.50;99.90;;;;;;5011681;28;20022;-78
2021/05/12 04:02:16;;;;;;;2.07;0.80;;;9.50;99.90;;;;;;5011965;28;20021;-78
2021/05/12 04:04:42;;;;;;;0.80;0.80;;;9.40;99.90;;;;;;4998571;28;20030;-80
2021/05/12 04:07:07;;;;;;;0.80;0.80;;;9.50;99.90;;;;;;4999963;28;20030;-79
2021/05/12 04:09:33;;;;;;;0.70;0.60;;;9.50;99.90;;;;;;4995437;28;20474;-79
2021/05/12 04:11:59;;;;;;;0.70;0.63;;;9.70;99.90;;;;;;5013170;28;20040;-79
2021/05/12 04:14:24;;;;;;;1.60;0.80;;;9.70;99.90;;;;;;5013142;28;20030;-80
2021/05/12 04:16:52;;;;;;;1.13;0.83;;;9.70;99.90;;;;;;5016570;28;20124;-80
2021/05/12 04:19:19;;;;;;;1.47;0.90;;;9.70;99.90;;;;;;5016822;28;20089;-79
2021/05/12 04:21:44;;;;;;;0.90;0.70;;;9.70;99.90;;;;;;5016980;28;20018;-79
2021/05/12 04:24:10;;;;;;;2.23;0.80;;;9.60;99.90;;;;;;5016587;28;20121;-79
2021/05/12 04:26:36;;;;;;;0.67;0.67;;;9.60;99.90;;;;;;5016400;28;20098;-80
2021/05/12 04:29:02;;;;;;;0.73;0.73;;;9.50;99.90;;;;;;5026803;28;20057;-79
2021/05/12 04:31:28;;;;;;;0.90;0.70;;;9.60;99.90;;;;;;5016924;28;20030;-79
2021/05/12 04:33:53;;;;;;;0.60;0.60;;;9.60;99.90;;;;;;5016480;28;20109;-79
2021/05/12 04:36:19;;;;;;;0.83;0.70;;;9.60;99.90;;;;;;4999132;28;20080;-79
2021/05/12 04:38:44;;;;;;;1.03;0.70;;;9.60;99.90;;;;;;5016273;28;20026;-79
2021/05/12 04:41:10;;;;;;;1.00;0.80;;;9.60;99.90;;;;;;5016187;28;20021;-79
2021/05/12 04:43:36;;;;;;;1.30;0.67;;;9.60;99.90;;;;;;4998608;28;20026;-79
2021/05/12 04:46:02;;;;;;;0.63;0.63;;;9.60;99.90;;;;;;4998538;28;20048;-79
2021/05/12 04:48:28;;;;;;;1.33;0.80;;;9.50;99.90;;;;;;5016671;28;20049;-79
2021/05/12 04:50:54;;;;;;;0.90;0.70;;;9.60;99.90;;;;;;5015950;28;20022;-79
2021/05/12 04:53:20;;;;;;;1.80;0.70;;;9.60;99.90;;;;;;4998479;28;20033;-79
2021/05/12 04:55:45;;;;;;;5.00;0.70;;;9.50;99.90;;;;;;4998342;28;20025;-80
2021/05/12 04:58:11;;;;;;;1.77;0.70;;;9.50;99.90;;;;;;5015824;28;20505;-80
2021/05/12 05:00:36;;;;;;;0.77;0.60;;;9.60;99.90;;;;;;5015791;28;20097;-79
2021/05/12 05:03:04;;;;;;;0.80;0.80;;;9.50;99.90;;;;;;5016196;28;20022;-79
2021/05/12 05:05:29;;;;;;;1.10;0.70;;;9.50;99.90;;;;;;4998411;28;20022;-79
2021/05/12 05:07:55;;;;;;;1.03;0.80;;;9.50;99.90;;;;;;5015840;28;20486;-80
2021/05/12 05:10:21;;;;;;;1.50;0.70;;;9.50;99.90;;;;;;5016033;28;20022;-80
2021/05/12 05:12:46;;;;;;;1.73;0.77;;;9.60;99.90;;;;;;5016013;28;20437;-80
2021/05/12 05:15:13;;;;;;;2.20;0.80;;;9.60;99.90;;;;;;5014134;28;20372;-75
2021/05/12 05:17:41;;;;;;;1.33;0.70;;;9.60;99.90;;;;;;5014928;28;20025;-79
2021/05/12 05:20:08;;;;;;;0.67;0.67;;;9.60;99.90;;;;;;5010780;28;20026;-79
2021/05/12 05:22:35;;;;;;;2.27;1.00;;;9.70;99.90;;;;;;4988065;28;20030;-79
2021/05/12 05:25:01;;;;;;;0.83;0.70;;;9.60;99.90;;;;;;5012020;28;20038;-75
2021/05/12 05:27:27;;;;;;;1.67;1.10;;;9.60;99.90;;;;;;5012178;28;20053;-82
2021/05/12 05:29:53;;;;;;;2.10;0.77;;;9.60;99.90;;;;;;5012936;28;20065;-75
2021/05/12 05:32:19;;;;;;;0.80;0.63;;;9.60;99.90;;;;;;5012164;28;20097;-76
2021/05/12 05:34:44;;;;;;;2.87;0.80;;;9.60;99.90;;;;;;4999946;28;20026;-75
2021/05/12 05:37:10;;;;;;;0.77;0.70;;;9.60;99.90;;;;;;5012228;28;20509;-75
2021/05/12 05:39:36;;;;;;;1.80;0.77;;;9.60;99.90;;;;;;5010652;28;20026;-75
2021/05/12 05:42:09;;;;;;;0.60;0.60;;;9.70;99.90;;;;;;5008977;28;20799;-75
2021/05/12 05:44:37;;;;;;;1.53;0.70;;;9.70;99.90;;;;;;5010744;28;20089;-75
2021/05/12 05:47:03;;;;;;;1.43;0.80;;;9.70;99.90;;;;;;4992238;28;20105;-68
2021/05/12 05:49:29;;;;;;;2.27;1.17;;;9.70;99.90;;;;;;5007883;28;20029;-75
2021/05/12 05:51:55;;;;;;;0.80;0.70;;;9.70;99.90;;;;;;5007783;28;20551;-75
2021/05/12 05:54:21;;;;;;;1.07;0.83;;;9.70;99.90;;;;;;5008858;28;20557;-75
2021/05/12 05:56:47;;;;;;;1.20;0.90;;;9.70;99.90;;;;;;5012998;28;20033;-75
2021/05/12 05:59:13;;;;;;;2.40;0.90;;;9.70;99.90;;;;;;5008068;28;20104;-75
2021/05/12 06:01:39;;;;;;;1.27;0.90;;;9.70;99.90;;;;;;5008357;28;20146;-75
2021/05/12 06:04:04;;;;;;;2.37;0.90;;;9.80;99.90;;;;;;5008355;28;20026;-75
2021/05/12 06:06:30;;;;;;;2.03;1.00;;;9.80;99.90;;;;;;5007846;28;20030;-74
2021/05/12 06:08:56;;;;;;;1.15;0.90;;;9.80;99.90;;;;;;4993203;28;20562;-74
2021/05/12 06:11:22;;;;;;;2.77;1.13;;;9.90;99.90;;;;;;4990273;28;20034;-74
2021/05/12 06:13:49;;;;;;;1.30;1.07;;;9.90;99.90;;;;;;4990770;28;20036;-74
2021/05/12 06:16:16;;;;;;;1.93;1.20;;;9.90;99.90;;;;;;5008076;28;20532;-74
2021/05/12 06:18:41;;;;;;;2.53;1.10;;;9.90;99.90;;;;;;5008384;28;20100;-74
2021/05/12 06:21:07;;;;;;;1.87;1.03;;;9.90;99.90;;;;;;5008352;28;20110;-74
2021/05/12 06:23:33;;;;;;;1.20;1.00;;;9.90;99.90;;;;;;5008776;28;20096;-74
2021/05/12 06:25:59;;;;;;;2.73;1.10;;;10.00;99.90;;;;;;5007968;28;20046;-74
2021/05/12 06:28:24;;;;;;;2.83;1.50;;;10.10;99.90;;;;;;5008761;28;20097;-74
2021/05/12 06:30:50;;;;;;;3.13;1.50;;;10.10;99.90;;;;;;5008301;28;20116;-71
2021/05/12 06:33:17;;;;;;;2.42;1.50;;;10.10;99.90;;;;;;5007853;28;20025;-74
2021/05/12 06:35:43;;;;;;;4.25;1.70;;;10.20;99.90;;;;;;5008204;28;20026;-74
2021/05/12 06:38:09;;;;;;;1.30;1.17;;;10.20;99.90;;;;;;4996253;28;20028;-74
2021/05/12 06:40:37;;;;;;;1.53;1.30;;;10.20;99.90;;;;;;5006790;28;20018;-74
2021/05/12 06:43:03;;;;;;;3.10;1.30;;;10.30;99.90;;;;;;5007525;28;20030;-74
2021/05/12 06:45:29;;;;;;;2.38;1.30;;;10.30;99.90;;;;;;5007777;28;20017;-74
2021/05/12 06:47:54;;;;;;;2.80;1.60;;;10.30;99.90;;;;;;5007538;28;20041;-75
2021/05/12 06:50:22;;;;;;;4.33;1.50;;;10.30;99.90;;;;;;5008097;28;20089;-74
2021/05/12 06:52:56;;;;;;;2.13;1.40;;;10.50;99.90;;;;;;5007924;28;20100;-74
2021/05/12 06:55:23;;;;;;;1.57;1.20;;;10.50;99.90;;;;;;5007331;28;20113;-74
2021/05/12 06:57:49;;;;;;;1.88;1.35;;;10.50;99.90;;;;;;5004388;28;20131;-74
2021/05/12 07:00:15;;;;;;;1.70;1.30;;;10.50;99.90;;;;;;5007127;28;20541;-74
2021/05/12 07:02:41;;;;;;;5.68;1.30;;;10.60;99.90;;;;;;5006870;28;20033;-80
2021/05/12 07:05:07;;;;;;;7.82;1.52;;;10.60;99.90;;;;;;5006711;28;20083;-74
2021/05/12 07:07:33;;;;;;;2.55;1.35;;;10.50;99.90;;;;;;5009912;28;20030;-75
2021/05/12 07:09:59;;;;;;;3.75;1.40;;;10.60;99.90;;;;;;5003254;28;20025;-74
2021/05/12 07:12:25;;;;;;;3.97;1.40;;;10.60;99.90;;;;;;4988896;28;20054;-75
2021/05/12 07:14:51;;;;;;;1.63;1.10;;;10.50;99.90;;;;;;4990192;28;20026;-75
2021/05/12 07:17:17;;;;;;;4.10;1.33;;;10.50;99.90;;;;;;5008510;28;20132;-74
2021/05/12 07:19:43;;;;;;;1.92;0.90;;;10.50;99.90;;;;;;5008010;28;20025;-80
2021/05/12 07:22:09;;;;;;;2.38;1.20;;;10.60;99.90;;;;;;5007620;28;20089;-79
2021/05/12 07:24:35;;;;;;;3.75;1.20;;;10.60;99.90;;;;;;5008166;28;20117;-79
2021/05/12 07:27:01;;;;;;;2.63;1.20;;;10.60;99.90;;;;;;4990296;28;20120;-79
2021/05/12 07:29:26;;;;;;;3.17;1.23;;;10.70;99.90;;;;;;5007076;28;20034;-79
2021/05/12 07:31:52;;;;;;;1.85;1.13;;;10.70;99.90;;;;;;5008441;28;20149;-79
2021/05/12 07:34:19;;;;;;;2.15;1.70;;;10.70;99.90;;;;;;5008748;28;20544;-78
2021/05/12 07:36:44;;;;;;;1.40;1.13;;;10.80;99.90;;;;;;5008965;28;20018;-78
2021/05/12 07:39:10;;;;;;;2.35;1.20;;;10.70;99.90;;;;;;5008918;28;20101;-78
2021/05/12 07:41:36;;;;;;;1.90;1.30;;;10.70;99.90;;;;;;5008842;28;20026;-74
2021/05/12 07:44:03;;;;;;;5.03;1.55;;;10.70;99.90;;;;;;5006666;28;20389;-75
2021/05/12 07:46:30;;;;;;;1.83;1.13;;;10.60;99.90;;;;;;5007217;28;20058;-78
2021/05/12 07:48:55;;;;;;;1.42;1.10;;;10.70;99.90;;;;;;5007682;28;20022;-79
2021/05/12 07:51:22;;;;;;;2.35;1.13;;;10.70;99.90;;;;;;5011884;28;20026;-78
2021/05/12 07:53:49;;;;;;;2.25;1.20;;;10.80;99.90;;;;;;5012349;28;20048;-78
2021/05/12 07:56:14;;;;;;;1.90;1.15;;;10.90;99.90;;;;;;5013037;28;20026;-78
2021/05/12 07:58:40;;;;;;;1.90;1.20;;;10.90;99.90;;;;;;4993717;28;20056;-79
2021/05/12 08:01:17;;;;;;;3.00;1.50;;;10.80;99.90;;;;;;4995130;28;20026;-78
2021/05/12 08:03:42;;;;;;;4.18;1.73;;;10.80;99.90;;;;;;5011353;28;20049;-79
2021/05/12 08:06:08;;;;;;;3.53;1.67;;;10.70;99.90;;;;;;5012880;28;20060;-79
2021/05/12 08:08:34;;;;;;;1.48;1.30;;;10.70;99.90;;;;;;5013909;28;20463;-79
2021/05/12 08:10:59;;;;;;;3.72;2.30;;;10.80;99.90;;;;;;5015329;28;20033;-83
2021/05/12 08:13:25;;;;;;;2.25;1.60;;;10.80;99.90;;;;;;5016231;28;20025;-81
2021/05/12 08:15:50;;;;;;;2.83;1.60;;;10.70;99.90;;;;;;5002836;28;20022;-83
2021/05/12 08:18:16;;;;;;;2.80;1.70;;;10.70;99.90;;;;;;5015990;28;20109;-84
2021/05/12 08:20:41;;;;;;;4.05;1.60;;;10.70;99.90;;;;;;5016616;28;20061;-83
2021/05/12 08:23:07;;;;;;;3.35;1.80;;;10.80;99.90;;;;;;5015978;28;20030;-83
2021/05/12 08:25:33;;;;;;;5.25;1.80;;;10.70;99.90;;;;;;5015734;28;20049;-82
2021/05/12 08:27:58;;;;;;;3.97;1.67;;;10.70;99.90;;;;;;5016722;28;20033;-86
2021/05/12 08:30:25;;;;;;;4.03;1.50;;;10.80;99.90;;;;;;5003080;28;20606;-84
2021/05/12 08:32:51;;;;;;;2.10;1.63;;;10.80;99.90;;;;;;5004449;28;20041;-78
2021/05/12 08:35:17;;;;;;;2.53;1.60;;;10.70;99.90;;;;;;5002355;28;20026;-80
2021/05/12 08:37:42;;;;;;;4.50;2.45;;;10.80;99.90;;;;;;5012300;28;20121;-81
2021/05/12 08:40:08;;;;;;;5.13;1.70;;;10.80;99.90;;;;;;4993955;28;20041;-82
2021/05/12 08:42:35;;;;;;;2.22;1.52;;;10.70;99.90;;;;;;4994402;28;20022;-83
2021/05/12 08:45:01;;;;;;;3.30;1.60;;;10.80;99.90;;;;;;5011888;28;20033;-82
2021/05/12 08:47:28;;;;;;;3.08;1.98;;;10.80;99.90;;;;;;5013086;28;20639;-84
2021/05/12 08:49:54;;;;;;;3.33;1.90;;;10.90;99.90;;;;;;5011420;28;20044;-79
2021/05/12 08:52:23;;;;;;;4.05;1.80;;;10.90;99.90;;;;;;5006057;28;20026;-81
2021/05/12 08:54:49;;;;;;;3.55;1.88;;;10.80;99.90;;;;;;5012966;28;20483;-80
2021/05/12 08:57:15;;;;;;;2.55;1.77;;;10.90;99.90;;;;;;5013506;28;20753;-77
2021/05/12 08:59:41;;;;;;;3.70;1.80;;;10.80;99.90;;;;;;5013786;28;20022;-82
2021/05/12 09:02:06;;;;;;;4.10;2.30;;;10.80;99.90;;;;;;4994672;28;20050;-83
2021/05/12 09:04:33;;;;;;;9.00;2.53;;;10.80;99.90;;;;;;5012938;28;20103;-80
2021/05/12 09:06:58;;;;;;;5.38;2.53;;;10.80;99.90;;;;;;5010958;28;20037;-82
2021/05/12 09:09:25;;;;;;;4.53;2.40;;;10.90;99.90;;;;;;5004777;28;20034;-82
2021/05/12 09:11:51;;;;;;;4.85;2.67;;;10.90;99.90;;;;;;4990698;28;20384;-83
2021/05/12 09:14:26;;;;;;;4.47;2.00;;;11.00;99.90;;;;;;5010198;28;20103;-83
2021/05/12 09:16:52;;;;;;;3.63;2.10;;;10.90;99.90;;;;;;5009599;28;20033;-82
2021/05/12 09:19:21;;;;;;;4.15;2.10;;;11.00;99.90;;;;;;5010450;28;20066;-82
2021/05/12 09:21:48;;;;;;;3.17;1.95;;;11.10;99.90;;;;;;5009684;28;20407;-82
2021/05/12 09:24:38;;;;;;;3.63;1.85;;;11.00;99.90;;;;;;5009358;28;20368;-82
2021/05/12 09:27:20;;;;;;;2.38;1.40;;;11.00;99.90;;;;;;5009642;28;20026;-82
2021/05/12 09:29:56;;;;;;;4.30;1.75;;;11.00;99.90;;;;;;5008970;28;20068;-78
2021/05/12 09:32:22;;;;;;;2.10;1.60;;;11.10;99.90;;;;;;5007531;28;20029;-78
2021/05/12 09:34:51;;;;;;;3.00;1.38;;;11.20;99.90;;;;;;5007947;28;20044;-78
2021/05/12 09:37:35;;;;;;;4.28;1.05;;;11.20;99.90;;;;;;4990025;28;20061;-78
2021/05/12 09:40:09;;;;;;;1.48;1.17;;;11.20;99.90;;;;;;4996758;28;20053;-78
2021/05/12 09:42:37;;;;;;;2.15;1.20;;;11.10;99.90;;;;;;5008330;28;20042;-78
2021/05/12 09:45:12;;;;;;;1.45;0.98;;;10.90;99.90;;;;;;5007401;28;20030;-78
2021/05/12 09:47:38;;;;;;;1.67;1.05;;;10.90;99.90;;;;;;5006968;28;20038;-78
2021/05/12 09:50:11;;;;;;;1.05;0.88;;;10.80;99.90;;;;;;5006144;28;20073;-76
2021/05/12 09:52:37;;;;;;;1.23;1.00;;;10.80;99.90;;;;;;5004881;28;20129;-76
2021/05/12 09:55:05;;;;;;;0.93;0.70;;;10.80;99.90;;;;;;5000232;28;20121;-83
2021/05/12 09:57:31;;;;;;;0.60;0.60;;;10.70;99.90;;;;;;5008232;28;20026;-83
2021/05/12 09:59:57;;;;;;;0.95;0.85;;;10.60;99.90;;;;;;5008234;28;20375;-82
2021/05/12 10:02:22;;;;;;;1.65;0.90;;;10.60;99.90;;;;;;5008646;28;20036;-82
2021/05/12 10:04:50;;;;;;;1.27;0.90;;;10.60;99.90;;;;;;5008016;28;20081;-82
2021/05/12 10:09:45;;;;;;;0.80;0.80;;;10.40;99.90;;;;;;5027770;22;20071;-79
2021/05/12 10:12:14;;;;;;;1.00;1.00;;;10.50;99.90;;;;;;5037827;28;20524;-79
2021/05/12 10:14:43;;;;;;;2.63;0.88;;;10.50;99.90;;;;;;5031801;28;20029;-83
2021/05/12 10:17:11;;;;;;;1.42;0.90;;;10.50;99.90;;;;;;5023591;28;20060;-84
2021/05/12 10:19:38;;;;;;;1.38;0.80;;;10.50;99.90;;;;;;5013854;28;20018;-83
2021/05/12 10:22:05;;;;;;;1.42;1.00;;;10.50;99.90;;;;;;5039412;28;20056;-84
2021/05/12 10:24:33;;;;;;;1.10;0.98;;;10.50;99.90;;;;;;5046812;28;20031;-83
2021/05/12 10:27:01;;;;;;;1.10;0.97;;;10.60;99.90;;;;;;5010706;28;20439;-83
2021/05/12 10:29:27;;;;;;;1.52;1.10;;;10.50;99.90;;;;;;5024974;28;20029;-83
2021/05/12 10:31:53;;;;;;;2.67;0.90;;;10.50;99.90;;;;;;5047125;28;20387;-83
2021/05/12 10:34:39;;;;;;;2.33;1.20;;;10.60;99.90;;;;;;5047616;28;20032;-83
2021/05/12 10:37:22;;;;;;;2.55;1.00;;;10.60;99.90;;;;;;5029192;28;20032;-83
2021/05/12 10:39:53;;;;;;;1.95;1.00;;;10.50;99.90;;;;;;5038801;28;20025;-83
2021/05/12 10:42:50;;;;;;;2.00;1.20;;;10.60;99.90;;;;;;5046735;28;20504;-83
2021/05/12 10:45:40;;;;;;;1.65;1.10;;;10.60;99.90;;;;;;5037092;28;20068;-83
2021/05/12 10:48:06;;;;;;;1.67;0.90;;;10.50;99.90;;;;;;5015761;28;20506;-82
2021/05/12 10:50:49;;;;;;;1.47;1.03;;;10.40;99.90;;;;;;5013883;28;20021;-83
2021/05/12 10:53:20;;;;;;;2.20;1.10;;;10.50;99.90;;;;;;5009760;28;20827;-82
2021/05/12 10:56:01;;;;;;;1.50;1.20;;;10.50;99.90;;;;;;5009946;28;20097;-82
2021/05/12 10:58:31;;;;;;;1.40;1.20;;;10.50;99.90;;;;;;5008932;28;20104;-77
2021/05/12 11:01:00;;;;;;;3.67;1.40;;;10.50;99.90;;;;;;5019271;28;20120;-78
2021/05/12 11:03:49;;;;;;;1.50;1.40;;;10.40;99.90;;;;;;5007989;28;20028;-78
2021/05/12 11:06:16;;;;;;;2.17;1.43;;;10.40;99.90;;;;;;5013581;28;20025;-77
2021/05/12 11:09:07;;;;;;;2.10;1.60;;;10.40;99.90;;;;;;5019359;28;20104;-78
2021/05/12 11:11:43;;;;;;;1.70;1.60;;;10.40;99.90;;;;;;4991468;28;20041;-78
2021/05/12 11:14:22;;;;;;;;;;;10.50;99.90;;;;;;4976292;28;20027;-78
2021/05/12 11:17:07;;;;;;;3.53;1.73;;;10.40;99.90;;;;;;4979125;28;19918;-78
2021/05/12 11:19:43;;;;;;;2.73;1.30;;;10.40;99.90;;;;;;4998138;28;20418;-77
2021/05/12 11:25:10;;;;;;;1.20;1.10;;;10.60;99.90;;;;;;4992798;28;20082;-78
2021/05/12 11:33:32;;;;;;;2.10;1.13;;;10.60;99.90;;;;;;4990566;28;20056;-78
2021/05/12 11:36:05;;;;;;;1.80;1.40;;;10.70;99.90;;;;;;4995937;28;20030;-77
2021/05/12 11:38:31;;;;;;;1.65;1.30;;;10.80;99.90;;;;;;4995923;28;20540;-77
2021/05/12 11:41:29;;;;;;;2.77;1.60;;;10.90;99.90;;;;;;4998836;28;20031;-77
2021/05/12 11:44:02;;;;;;;1.50;1.40;;;10.80;99.90;;;;;;4985118;28;20149;-77
2021/05/12 11:46:40;;;;;;;1.85;1.45;;;10.80;99.90;;;;;;5002714;28;20026;-77
2021/05/12 11:49:12;;;;;;;2.30;1.65;;;10.90;99.90;;;;;;4989313;28;20034;-77
2021/05/12 11:51:41;;;;;;;2.47;1.70;;;10.90;99.90;;;;;;5013271;28;20052;-78
2021/05/12 11:54:23;;;;;;;3.15;1.50;;;10.90;99.90;;;;;;5026263;28;20030;-78
2021/05/12 11:56:54;;;;;;;2.20;1.63;;;11.20;99.90;;;;;;5024969;28;20030;-78
2021/05/12 11:59:30;;;;;;;1.75;1.48;;;11.20;99.90;;;;;;5016243;28;20038;-77
2021/05/12 12:02:17;;;;;;;1.73;1.40;;;11.40;99.90;;;;;;5013846;28;20044;-78
2021/05/12 12:07:11;;;;;;;1.73;1.60;;;11.40;99.90;;;;;;5007692;28;20044;-77
2021/05/12 12:09:36;;;;;;;3.15;1.83;;;11.40;99.90;;;;;;5022807;28;20052;-78
2021/05/12 12:12:02;;;;;;;1.70;1.60;;;11.50;99.90;;;;;;5030521;28;20104;-78
2021/05/12 12:14:33;;;;;;;3.28;2.10;;;11.60;99.90;;;;;;5029025;28;20033;-78
2021/05/12 12:16:59;;;;;;;3.92;2.30;;;11.50;99.90;;;;;;5032639;28;20038;-77
2021/05/12 12:19:25;;;;;;;2.58;1.90;;;11.50;99.90;;;;;;5044641;28;20103;-78
2021/05/12 12:21:54;;;;;;;2.25;1.80;;;11.60;99.90;;;;;;5037115;28;20029;-78
2021/05/12 12:24:23;;;;;;;4.07;2.20;;;11.60;99.90;;;;;;5041749;28;20035;-78
2021/05/12 12:26:53;;;;;;;3.65;2.25;;;11.50;99.90;;;;;;5039545;28;20091;-78
2021/05/12 12:29:21;;;;;;;2.63;2.28;;;11.40;99.90;;;;;;5041001;28;20529;-78
2021/05/12 12:31:49;;;;;;;4.78;2.33;;;11.30;99.90;;;;;;5042601;28;20029;-78
2021/05/12 12:34:22;;;;;;;3.05;2.45;;;11.10;99.90;;;;;;5035314;28;20030;-79
2021/05/12 12:36:59;;;;;;;3.28;2.50;;;11.00;99.90;;;;;;5030628;28;20753;-76
2021/05/12 12:39:51;;;;;;;3.60;2.15;;;11.10;99.90;;;;;;5051764;28;20021;-78
2021/05/12 12:42:22;;;;;;;3.85;3.13;;;11.10;99.90;;;;;;5050982;28;20520;-77
2021/05/12 12:44:48;;;;;;;4.38;2.97;;;11.10;99.90;;;;;;5040825;28;20017;-78
2021/05/12 12:47:16;;;;;;;4.38;3.25;;;11.10;99.90;;;;;;5050996;28;20032;-78
2021/05/12 12:49:51;;;;;;;4.07;3.00;;;11.10;99.90;;;;;;5046708;28;20043;-78
2021/05/12 12:52:41;;;;;;;3.63;3.25;;;11.20;99.90;;;;;;5024204;28;20033;-77
2021/05/12 12:55:10;;;;;;;5.63;3.40;;;11.30;99.90;;;;;;5034743;28;20028;-77
2021/05/12 12:57:39;;;;;;;5.18;3.90;;;11.40;99.90;;;;;;5039126;28;20029;-77
2021/05/12 13:00:09;;;;;;;6.47;3.38;;;11.40;99.90;;;;;;5030084;28;20108;-77
2021/05/12 13:02:37;;;;;;;3.75;3.40;;;11.40;99.90;;;;;;5032247;28;20021;-78
2021/05/12 13:05:17;;;;;;;4.30;3.83;;;11.30;99.90;;;;;;5043942;28;20051;-77
2021/05/12 13:07:44;;;;;;;6.20;4.25;;;11.40;99.90;;;;;;5040518;28;20036;-75
2021/05/12 13:10:24;;;;;;;6.30;4.03;;;11.20;99.90;;;;;;5037376;28;20121;-76
2021/05/12 13:12:49;;;;;;;5.75;4.40;;;11.20;99.90;;;;;;5034518;28;20068;-76